sensor_id;sensor_type;location;lat;lon;timestamp;P1;durP1;ratioP1;P2;durP2;ratioP2
52974;SDS011;38839;45.186;5.720;2023-04-25T00:00:38;2.63;;;1.05;;
52974;SDS011;38839;45.186;5.720;2023-04-25T00:03:03;1.55;;;0.80;;
52974;SDS011;38839;45.186;5.720;2023-04-25T00:05:30;4.07;;;1.40;;
52974;SDS011;38839;45.186;5.720;2023-04-25T00:07:56;3.65;;;1.17;;
52974;SDS011;38839;45.186;5.720;2023-04-25T00:10:22;4.32;;;1.40;;
52974;SDS011;38839;45.186;5.720;2023-04-25T00:12:48;3.83;;;1.30;;
52974;SDS011;38839;45.186;5.720;2023-04-25T00:15:14;2.85;;;1.13;;
52974;SDS011;38839;45.186;5.720;2023-04-25T00:17:40;6.15;;;1.50;;
52974;SDS011;38839;45.186;5.720;2023-04-25T00:20:05;2.75;;;1.20;;
52974;SDS011;38839;45.186;5.720;2023-04-25T00:22:33;4.00;;;1.42;;
52974;SDS011;38839;45.186;5.720;2023-04-25T00:24:59;1.85;;;1.00;;
52974;SDS011;38839;45.186;5.720;2023-04-25T00:27:25;3.10;;;1.52;;
52974;SDS011;38839;45.186;5.720;2023-04-25T00:29:51;2.67;;;1.40;;
52974;SDS011;38839;45.186;5.720;2023-04-25T00:32:17;3.97;;;1.63;;
52974;SDS011;38839;45.186;5.720;2023-04-25T00:34:42;3.33;;;1.80;;
52974;SDS011;38839;45.186;5.720;2023-04-25T00:37:08;2.20;;;1.20;;
52974;SDS011;38839;45.186;5.720;2023-04-25T00:39:33;1.73;;;1.38;;
52974;SDS011;38839;45.186;5.720;2023-04-25T00:41:58;1.48;;;1.20;;
52974;SDS011;38839;45.186;5.720;2023-04-25T00:44:25;5.45;;;1.30;;
52974;SDS011;38839;45.186;5.720;2023-04-25T00:46:52;4.30;;;1.40;;
52974;SDS011;38839;45.186;5.720;2023-04-25T00:49:19;3.50;;;1.60;;
52974;SDS011;38839;45.186;5.720;2023-04-25T00:51:44;2.25;;;1.20;;
52974;SDS011;38839;45.186;5.720;2023-04-25T00:54:11;2.13;;;1.20;;
52974;SDS011;38839;45.186;5.720;2023-04-25T00:56:37;2.33;;;1.10;;
52974;SDS011;38839;45.186;5.720;2023-04-25T00:59:03;1.88;;;1.55;;
52974;SDS011;38839;45.186;5.720;2023-04-25T01:01:29;1.45;;;1.02;;
52974;SDS011;38839;45.186;5.720;2023-04-25T01:03:56;1.52;;;1.00;;
52974;SDS011;38839;45.186;5.720;2023-04-25T01:06:23;1.73;;;1.15;;
52974;SDS011;38839;45.186;5.720;2023-04-25T01:08:49;2.55;;;1.40;;
52974;SDS011;38839;45.186;5.720;2023-04-25T01:11:16;2.30;;;1.10;;
52974;SDS011;38839;45.186;5.720;2023-04-25T01:13:41;2.45;;;1.08;;
52974;SDS011;38839;45.186;5.720;2023-04-25T01:16:07;5.00;;;1.35;;
52974;SDS011;38839;45.186;5.720;2023-04-25T01:18:32;3.78;;;1.40;;
52974;SDS011;38839;45.186;5.720;2023-04-25T01:21:07;3.22;;;1.20;;
52974;SDS011;38839;45.186;5.720;2023-04-25T01:23:35;1.20;;;1.10;;
52974;SDS011;38839;45.186;5.720;2023-04-25T01:26:01;1.73;;;1.05;;
52974;SDS011;38839;45.186;5.720;2023-04-25T01:28:26;5.25;;;1.30;;
52974;SDS011;38839;45.186;5.720;2023-04-25T01:30:53;1.77;;;1.15;;
52974;SDS011;38839;45.186;5.720;2023-04-25T01:33:19;2.47;;;0.90;;
52974;SDS011;38839;45.186;5.720;2023-04-25T01:35:46;1.60;;;0.98;;
52974;SDS011;38839;45.186;5.720;2023-04-25T01:38:12;3.83;;;0.90;;
52974;SDS011;38839;45.186;5.720;2023-04-25T01:40:38;6.22;;;1.20;;
52974;SDS011;38839;45.186;5.720;2023-04-25T01:43:05;1.35;;;1.00;;
52974;SDS011;38839;45.186;5.720;2023-04-25T01:45:31;3.35;;;1.10;;
52974;SDS011;38839;45.186;5.720;2023-04-25T01:47:58;2.20;;;0.95;;
52974;SDS011;38839;45.186;5.720;2023-04-25T01:50:24;2.15;;;1.02;;
52974;SDS011;38839;45.186;5.720;2023-04-25T01:52:50;1.00;;;1.00;;
52974;SDS011;38839;45.186;5.720;2023-04-25T01:55:16;2.90;;;1.08;;
52974;SDS011;38839;45.186;5.720;2023-04-25T01:57:41;1.80;;;1.10;;
52974;SDS011;38839;45.186;5.720;2023-04-25T02:00:07;2.03;;;1.23;;
52974;SDS011;38839;45.186;5.720;2023-04-25T02:02:34;2.67;;;1.08;;
52974;SDS011;38839;45.186;5.720;2023-04-25T02:04:59;1.70;;;1.00;;
52974;SDS011;38839;45.186;5.720;2023-04-25T02:07:25;1.42;;;1.13;;
52974;SDS011;38839;45.186;5.720;2023-04-25T02:09:51;3.03;;;1.30;;
52974;SDS011;38839;45.186;5.720;2023-04-25T02:12:17;1.20;;;1.00;;
52974;SDS011;38839;45.186;5.720;2023-04-25T02:14:42;1.98;;;1.13;;
52974;SDS011;38839;45.186;5.720;2023-04-25T02:17:07;4.32;;;1.27;;
52974;SDS011;38839;45.186;5.720;2023-04-25T02:19:33;2.65;;;1.10;;
52974;SDS011;38839;45.186;5.720;2023-04-25T02:21:58;3.22;;;1.40;;
52974;SDS011;38839;45.186;5.720;2023-04-25T02:24:24;2.22;;;1.10;;
52974;SDS011;38839;45.186;5.720;2023-04-25T02:26:49;4.22;;;1.30;;
52974;SDS011;38839;45.186;5.720;2023-04-25T02:29:15;1.60;;;1.10;;
52974;SDS011;38839;45.186;5.720;2023-04-25T02:31:41;1.73;;;1.02;;
52974;SDS011;38839;45.186;5.720;2023-04-25T02:34:07;2.67;;;0.90;;
52974;SDS011;38839;45.186;5.720;2023-04-25T02:36:32;2.78;;;1.08;;
52974;SDS011;38839;45.186;5.720;2023-04-25T02:38:59;2.17;;;1.05;;
52974;SDS011;38839;45.186;5.720;2023-04-25T02:41:25;5.53;;;1.30;;
52974;SDS011;38839;45.186;5.720;2023-04-25T02:43:51;1.92;;;1.10;;
52974;SDS011;38839;45.186;5.720;2023-04-25T02:46:16;3.08;;;1.30;;
52974;SDS011;38839;45.186;5.720;2023-04-25T02:48:42;2.85;;;1.08;;
52974;SDS011;38839;45.186;5.720;2023-04-25T02:51:07;2.25;;;1.10;;
52974;SDS011;38839;45.186;5.720;2023-04-25T02:53:33;1.92;;;1.10;;
52974;SDS011;38839;45.186;5.720;2023-04-25T02:55:58;1.70;;;1.00;;
52974;SDS011;38839;45.186;5.720;2023-04-25T02:58:24;3.00;;;1.25;;
52974;SDS011;38839;45.186;5.720;2023-04-25T03:00:49;2.22;;;1.40;;
52974;SDS011;38839;45.186;5.720;2023-04-25T03:03:15;2.67;;;1.25;;
52974;SDS011;38839;45.186;5.720;2023-04-25T03:05:42;2.38;;;1.10;;
52974;SDS011;38839;45.186;5.720;2023-04-25T03:08:08;2.10;;;1.15;;
52974;SDS011;38839;45.186;5.720;2023-04-25T03:10:34;1.85;;;1.13;;
52974;SDS011;38839;45.186;5.720;2023-04-25T03:12:59;5.38;;;1.30;;
52974;SDS011;38839;45.186;5.720;2023-04-25T03:15:25;1.63;;;1.30;;
52974;SDS011;38839;45.186;5.720;2023-04-25T03:17:50;3.60;;;1.33;;
52974;SDS011;38839;45.186;5.720;2023-04-25T03:20:15;2.63;;;1.42;;
52974;SDS011;38839;45.186;5.720;2023-04-25T03:22:41;3.92;;;1.40;;
52974;SDS011;38839;45.186;5.720;2023-04-25T03:25:06;2.80;;;1.40;;
52974;SDS011;38839;45.186;5.720;2023-04-25T03:27:32;2.85;;;1.38;;
52974;SDS011;38839;45.186;5.720;2023-04-25T03:29:58;2.67;;;1.35;;
52974;SDS011;38839;45.186;5.720;2023-04-25T03:32:24;6.10;;;1.52;;
52974;SDS011;38839;45.186;5.720;2023-04-25T03:34:49;6.60;;;2.15;;
52974;SDS011;38839;45.186;5.720;2023-04-25T03:37:15;2.95;;;1.60;;
52974;SDS011;38839;45.186;5.720;2023-04-25T03:39:40;3.13;;;1.50;;
52974;SDS011;38839;45.186;5.720;2023-04-25T03:42:05;2.03;;;1.17;;
52974;SDS011;38839;45.186;5.720;2023-04-25T03:44:31;4.38;;;1.98;;
52974;SDS011;38839;45.186;5.720;2023-04-25T03:46:56;4.10;;;1.70;;
52974;SDS011;38839;45.186;5.720;2023-04-25T03:49:22;3.97;;;1.50;;
52974;SDS011;38839;45.186;5.720;2023-04-25T03:51:47;4.72;;;1.67;;
52974;SDS011;38839;45.186;5.720;2023-04-25T03:54:12;4.85;;;2.13;;
52974;SDS011;38839;45.186;5.720;2023-04-25T03:56:38;4.53;;;1.73;;
52974;SDS011;38839;45.186;5.720;2023-04-25T03:59:03;5.00;;;1.92;;
52974;SDS011;38839;45.186;5.720;2023-04-25T04:01:29;4.47;;;1.70;;
52974;SDS011;38839;45.186;5.720;2023-04-25T04:03:54;4.57;;;1.95;;
52974;SDS011;38839;45.186;5.720;2023-04-25T04:06:19;5.07;;;1.63;;
52974;SDS011;38839;45.186;5.720;2023-04-25T04:08:45;3.90;;;1.48;;
52974;SDS011;38839;45.186;5.720;2023-04-25T04:11:11;2.75;;;1.52;;
52974;SDS011;38839;45.186;5.720;2023-04-25T04:13:36;3.63;;;1.40;;
52974;SDS011;38839;45.186;5.720;2023-04-25T04:16:02;2.65;;;1.50;;
52974;SDS011;38839;45.186;5.720;2023-04-25T04:18:29;4.60;;;1.60;;
52974;SDS011;38839;45.186;5.720;2023-04-25T04:20:54;3.42;;;1.70;;
52974;SDS011;38839;45.186;5.720;2023-04-25T04:23:20;3.35;;;1.63;;
52974;SDS011;38839;45.186;5.720;2023-04-25T04:25:46;4.43;;;1.88;;
52974;SDS011;38839;45.186;5.720;2023-04-25T04:28:12;3.83;;;1.90;;
52974;SDS011;38839;45.186;5.720;2023-04-25T04:30:38;4.45;;;1.90;;
52974;SDS011;38839;45.186;5.720;2023-04-25T04:33:06;3.00;;;1.90;;
52974;SDS011;38839;45.186;5.720;2023-04-25T04:35:32;3.20;;;1.75;;
52974;SDS011;38839;45.186;5.720;2023-04-25T04:37:57;5.00;;;1.90;;
52974;SDS011;38839;45.186;5.720;2023-04-25T04:40:22;2.47;;;1.80;;
52974;SDS011;38839;45.186;5.720;2023-04-25T04:42:48;5.28;;;2.00;;
52974;SDS011;38839;45.186;5.720;2023-04-25T04:45:14;3.67;;;1.60;;
52974;SDS011;38839;45.186;5.720;2023-04-25T04:47:41;3.30;;;2.22;;
52974;SDS011;38839;45.186;5.720;2023-04-25T04:50:07;2.67;;;1.70;;
52974;SDS011;38839;45.186;5.720;2023-04-25T04:55:02;2.95;;;1.80;;
52974;SDS011;38839;45.186;5.720;2023-04-25T04:57:28;6.47;;;1.90;;
52974;SDS011;38839;45.186;5.720;2023-04-25T04:59:54;3.05;;;2.03;;
52974;SDS011;38839;45.186;5.720;2023-04-25T05:02:20;6.57;;;2.00;;
52974;SDS011;38839;45.186;5.720;2023-04-25T05:04:45;4.07;;;1.77;;
52974;SDS011;38839;45.186;5.720;2023-04-25T05:07:11;4.13;;;2.08;;
52974;SDS011;38839;45.186;5.720;2023-04-25T05:09:37;4.45;;;1.80;;
52974;SDS011;38839;45.186;5.720;2023-04-25T05:12:02;1.98;;;1.55;;
52974;SDS011;38839;45.186;5.720;2023-04-25T05:14:28;5.50;;;1.80;;
52974;SDS011;38839;45.186;5.720;2023-04-25T05:16:53;7.82;;;1.60;;
52974;SDS011;38839;45.186;5.720;2023-04-25T05:19:19;4.57;;;1.88;;
52974;SDS011;38839;45.186;5.720;2023-04-25T05:21:45;3.33;;;1.77;;
52974;SDS011;38839;45.186;5.720;2023-04-25T05:24:10;4.25;;;1.90;;
52974;SDS011;38839;45.186;5.720;2023-04-25T05:26:36;5.63;;;2.08;;
52974;SDS011;38839;45.186;5.720;2023-04-25T05:29:02;5.63;;;1.90;;
52974;SDS011;38839;45.186;5.720;2023-04-25T05:31:28;5.00;;;2.03;;
52974;SDS011;38839;45.186;5.720;2023-04-25T05:33:53;3.83;;;1.85;;
52974;SDS011;38839;45.186;5.720;2023-04-25T05:36:19;3.90;;;1.88;;
52974;SDS011;38839;45.186;5.720;2023-04-25T05:38:44;5.88;;;1.73;;
52974;SDS011;38839;45.186;5.720;2023-04-25T05:41:10;2.85;;;1.73;;
52974;SDS011;38839;45.186;5.720;2023-04-25T05:43:35;2.67;;;1.65;;
52974;SDS011;38839;45.186;5.720;2023-04-25T05:46:01;5.90;;;1.80;;
52974;SDS011;38839;45.186;5.720;2023-04-25T05:48:26;5.78;;;1.65;;
52974;SDS011;38839;45.186;5.720;2023-04-25T05:50:52;9.02;;;1.85;;
52974;SDS011;38839;45.186;5.720;2023-04-25T05:53:18;5.78;;;1.58;;
52974;SDS011;38839;45.186;5.720;2023-04-25T05:55:44;7.82;;;1.77;;
52974;SDS011;38839;45.186;5.720;2023-04-25T05:58:09;4.18;;;2.13;;
52974;SDS011;38839;45.186;5.720;2023-04-25T06:00:35;4.18;;;1.77;;
52974;SDS011;38839;45.186;5.720;2023-04-25T06:03:00;4.15;;;1.70;;
52974;SDS011;38839;45.186;5.720;2023-04-25T06:05:26;5.95;;;2.10;;
52974;SDS011;38839;45.186;5.720;2023-04-25T06:07:51;6.47;;;1.65;;
52974;SDS011;38839;45.186;5.720;2023-04-25T06:10:17;9.00;;;2.13;;
52974;SDS011;38839;45.186;5.720;2023-04-25T06:12:42;2.55;;;1.48;;
52974;SDS011;38839;45.186;5.720;2023-04-25T06:15:08;3.47;;;1.60;;
52974;SDS011;38839;45.186;5.720;2023-04-25T06:17:33;2.53;;;1.85;;
52974;SDS011;38839;45.186;5.720;2023-04-25T06:19:59;4.78;;;2.00;;
52974;SDS011;38839;45.186;5.720;2023-04-25T06:22:24;6.32;;;1.90;;
52974;SDS011;38839;45.186;5.720;2023-04-25T06:24:50;6.35;;;2.33;;
52974;SDS011;38839;45.186;5.720;2023-04-25T06:27:15;5.55;;;1.80;;
52974;SDS011;38839;45.186;5.720;2023-04-25T06:29:40;6.90;;;1.73;;
52974;SDS011;38839;45.186;5.720;2023-04-25T06:32:06;5.68;;;1.70;;
52974;SDS011;38839;45.186;5.720;2023-04-25T06:34:31;7.45;;;1.85;;
52974;SDS011;38839;45.186;5.720;2023-04-25T06:36:57;7.18;;;1.80;;
52974;SDS011;38839;45.186;5.720;2023-04-25T06:39:22;6.95;;;1.88;;
52974;SDS011;38839;45.186;5.720;2023-04-25T06:41:49;6.55;;;2.20;;
52974;SDS011;38839;45.186;5.720;2023-04-25T06:44:15;5.15;;;1.80;;
52974;SDS011;38839;45.186;5.720;2023-04-25T06:46:40;5.63;;;1.88;;
52974;SDS011;38839;45.186;5.720;2023-04-25T06:49:06;4.57;;;1.65;;
52974;SDS011;38839;45.186;5.720;2023-04-25T06:51:31;6.50;;;2.10;;
52974;SDS011;38839;45.186;5.720;2023-04-25T06:53:57;4.05;;;2.13;;
52974;SDS011;38839;45.186;5.720;2023-04-25T06:56:22;4.75;;;1.80;;
52974;SDS011;38839;45.186;5.720;2023-04-25T06:58:48;6.50;;;2.30;;
52974;SDS011;38839;45.186;5.720;2023-04-25T07:01:14;6.65;;;2.30;;
52974;SDS011;38839;45.186;5.720;2023-04-25T07:03:39;5.28;;;1.63;;
52974;SDS011;38839;45.186;5.720;2023-04-25T07:06:05;7.35;;;2.00;;
52974;SDS011;38839;45.186;5.720;2023-04-25T07:08:30;3.35;;;1.63;;
52974;SDS011;38839;45.186;5.720;2023-04-25T07:10:56;4.82;;;1.90;;
52974;SDS011;38839;45.186;5.720;2023-04-25T07:13:21;5.85;;;1.92;;
52974;SDS011;38839;45.186;5.720;2023-04-25T07:15:47;5.55;;;1.65;;
52974;SDS011;38839;45.186;5.720;2023-04-25T07:18:13;6.18;;;1.73;;
52974;SDS011;38839;45.186;5.720;2023-04-25T07:20:39;3.47;;;1.65;;
52974;SDS011;38839;45.186;5.720;2023-04-25T07:23:04;5.78;;;2.10;;
52974;SDS011;38839;45.186;5.720;2023-04-25T07:25:30;6.25;;;2.10;;
52974;SDS011;38839;45.186;5.720;2023-04-25T07:27:55;6.32;;;2.33;;
52974;SDS011;38839;45.186;5.720;2023-04-25T07:30:21;5.82;;;2.30;;
52974;SDS011;38839;45.186;5.720;2023-04-25T07:32:47;5.78;;;2.10;;
52974;SDS011;38839;45.186;5.720;2023-04-25T07:35:13;6.10;;;1.98;;
52974;SDS011;38839;45.186;5.720;2023-04-25T07:37:39;4.82;;;1.77;;
52974;SDS011;38839;45.186;5.720;2023-04-25T07:40:04;7.57;;;2.40;;
52974;SDS011;38839;45.186;5.720;2023-04-25T07:42:30;5.03;;;2.05;;
52974;SDS011;38839;45.186;5.720;2023-04-25T07:44:56;5.13;;;1.95;;
52974;SDS011;38839;45.186;5.720;2023-04-25T07:47:22;3.47;;;1.77;;
52974;SDS011;38839;45.186;5.720;2023-04-25T07:49:47;4.53;;;1.83;;
52974;SDS011;38839;45.186;5.720;2023-04-25T07:52:12;5.40;;;2.08;;
52974;SDS011;38839;45.186;5.720;2023-04-25T07:54:38;3.97;;;1.90;;
52974;SDS011;38839;45.186;5.720;2023-04-25T07:57:03;4.55;;;2.30;;
52974;SDS011;38839;45.186;5.720;2023-04-25T07:59:31;4.22;;;1.70;;
52974;SDS011;38839;45.186;5.720;2023-04-25T08:01:56;5.10;;;2.17;;
52974;SDS011;38839;45.186;5.720;2023-04-25T08:04:22;4.40;;;1.90;;
52974;SDS011;38839;45.186;5.720;2023-04-25T08:06:48;6.35;;;2.25;;
52974;SDS011;38839;45.186;5.720;2023-04-25T08:09:15;6.93;;;2.17;;
52974;SDS011;38839;45.186;5.720;2023-04-25T08:11:40;6.25;;;2.17;;
52974;SDS011;38839;45.186;5.720;2023-04-25T08:14:06;6.88;;;2.80;;
52974;SDS011;38839;45.186;5.720;2023-04-25T08:16:32;7.00;;;2.15;;
52974;SDS011;38839;45.186;5.720;2023-04-25T08:18:58;6.30;;;2.72;;
52974;SDS011;38839;45.186;5.720;2023-04-25T08:21:24;6.32;;;2.40;;
52974;SDS011;38839;45.186;5.720;2023-04-25T08:23:51;6.75;;;1.90;;
52974;SDS011;38839;45.186;5.720;2023-04-25T08:26:17;2.28;;;1.73;;
52974;SDS011;38839;45.186;5.720;2023-04-25T08:28:42;4.55;;;2.05;;
52974;SDS011;38839;45.186;5.720;2023-04-25T08:31:08;5.10;;;2.10;;
52974;SDS011;38839;45.186;5.720;2023-04-25T08:33:33;7.72;;;2.15;;
52974;SDS011;38839;45.186;5.720;2023-04-25T08:35:59;6.43;;;2.15;;
52974;SDS011;38839;45.186;5.720;2023-04-25T08:38:24;6.25;;;2.13;;
52974;SDS011;38839;45.186;5.720;2023-04-25T08:40:50;4.95;;;1.92;;
52974;SDS011;38839;45.186;5.720;2023-04-25T08:43:19;5.50;;;2.17;;
52974;SDS011;38839;45.186;5.720;2023-04-25T08:45:45;3.08;;;2.10;;
52974;SDS011;38839;45.186;5.720;2023-04-25T08:48:14;6.55;;;1.95;;
52974;SDS011;38839;45.186;5.720;2023-04-25T08:50:44;6.53;;;2.03;;
52974;SDS011;38839;45.186;5.720;2023-04-25T08:53:14;3.88;;;2.00;;
52974;SDS011;38839;45.186;5.720;2023-04-25T08:55:43;7.10;;;1.73;;
52974;SDS011;38839;45.186;5.720;2023-04-25T08:58:10;4.32;;;2.10;;
52974;SDS011;38839;45.186;5.720;2023-04-25T09:00:37;6.05;;;2.25;;
52974;SDS011;38839;45.186;5.720;2023-04-25T09:03:03;2.90;;;1.88;;
52974;SDS011;38839;45.186;5.720;2023-04-25T09:05:28;5.40;;;2.08;;
52974;SDS011;38839;45.186;5.720;2023-04-25T09:07:54;3.50;;;1.70;;
52974;SDS011;38839;45.186;5.720;2023-04-25T09:10:21;4.88;;;2.25;;
52974;SDS011;38839;45.186;5.720;2023-04-25T09:13:01;4.70;;;2.25;;
52974;SDS011;38839;45.186;5.720;2023-04-25T09:15:31;6.00;;;1.90;;
52974;SDS011;38839;45.186;5.720;2023-04-25T09:17:57;4.13;;;1.90;;
52974;SDS011;38839;45.186;5.720;2023-04-25T09:20:23;6.35;;;1.75;;
52974;SDS011;38839;45.186;5.720;2023-04-25T09:22:50;3.40;;;1.73;;
52974;SDS011;38839;45.186;5.720;2023-04-25T09:25:27;4.15;;;1.73;;
52974;SDS011;38839;45.186;5.720;2023-04-25T09:28:00;5.10;;;2.00;;
52974;SDS011;38839;45.186;5.720;2023-04-25T09:30:29;4.53;;;1.95;;
52974;SDS011;38839;45.186;5.720;2023-04-25T09:32:58;3.33;;;1.67;;
52974;SDS011;38839;45.186;5.720;2023-04-25T09:35:32;5.00;;;1.48;;
52974;SDS011;38839;45.186;5.720;2023-04-25T09:38:07;3.50;;;1.70;;
52974;SDS011;38839;45.186;5.720;2023-04-25T09:40:43;3.58;;;1.60;;
52974;SDS011;38839;45.186;5.720;2023-04-25T09:43:18;4.07;;;1.98;;
52974;SDS011;38839;45.186;5.720;2023-04-25T09:45:47;5.05;;;1.60;;
52974;SDS011;38839;45.186;5.720;2023-04-25T09:48:19;3.03;;;1.35;;
52974;SDS011;38839;45.186;5.720;2023-04-25T09:53:36;4.82;;;1.88;;
52974;SDS011;38839;45.186;5.720;2023-04-25T09:56:03;2.88;;;1.60;;
52974;SDS011;38839;45.186;5.720;2023-04-25T09:58:30;4.05;;;1.85;;
52974;SDS011;38839;45.186;5.720;2023-04-25T10:00:57;1.88;;;1.20;;
52974;SDS011;38839;45.186;5.720;2023-04-25T10:03:26;2.53;;;1.58;;
52974;SDS011;38839;45.186;5.720;2023-04-25T10:05:54;2.72;;;1.58;;
52974;SDS011;38839;45.186;5.720;2023-04-25T10:08:21;3.15;;;1.60;;
52974;SDS011;38839;45.186;5.720;2023-04-25T10:10:48;2.70;;;1.40;;
52974;SDS011;38839;45.186;5.720;2023-04-25T10:13:15;3.42;;;1.67;;
52974;SDS011;38839;45.186;5.720;2023-04-25T10:15:41;3.50;;;1.50;;
52974;SDS011;38839;45.186;5.720;2023-04-25T10:18:07;2.97;;;1.48;;
52974;SDS011;38839;45.186;5.720;2023-04-25T10:20:33;3.05;;;1.50;;
52974;SDS011;38839;45.186;5.720;2023-04-25T10:23:03;2.60;;;1.40;;
52974;SDS011;38839;45.186;5.720;2023-04-25T10:25:35;7.55;;;1.80;;
52974;SDS011;38839;45.186;5.720;2023-04-25T10:28:02;3.08;;;1.77;;
52974;SDS011;38839;45.186;5.720;2023-04-25T10:30:28;2.15;;;1.60;;
52974;SDS011;38839;45.186;5.720;2023-04-25T10:32:55;2.38;;;1.50;;
52974;SDS011;38839;45.186;5.720;2023-04-25T10:35:27;3.05;;;1.60;;
52974;SDS011;38839;45.186;5.720;2023-04-25T10:38:00;5.97;;;1.75;;
52974;SDS011;38839;45.186;5.720;2023-04-25T10:40:32;3.38;;;1.63;;
52974;SDS011;38839;45.186;5.720;2023-04-25T10:46:02;5.00;;;2.30;;
52974;SDS011;38839;45.186;5.720;2023-04-25T10:48:37;5.65;;;1.90;;
52974;SDS011;38839;45.186;5.720;2023-04-25T10:51:11;1.92;;;1.42;;
52974;SDS011;38839;45.186;5.720;2023-04-25T10:53:40;3.60;;;1.50;;
52974;SDS011;38839;45.186;5.720;2023-04-25T10:56:48;3.33;;;1.65;;
52974;SDS011;38839;45.186;5.720;2023-04-25T10:59:04;3.50;;;1.88;;
52974;SDS011;38839;45.186;5.720;2023-04-25T11:01:41;4.10;;;1.67;;
52974;SDS011;38839;45.186;5.720;2023-04-25T11:04:21;4.30;;;1.50;;
52974;SDS011;38839;45.186;5.720;2023-04-25T11:09:35;3.00;;;1.77;;
52974;SDS011;38839;45.186;5.720;2023-04-25T11:12:01;3.58;;;1.50;;
52974;SDS011;38839;45.186;5.720;2023-04-25T11:14:27;4.68;;;2.10;;
52974;SDS011;38839;45.186;5.720;2023-04-25T11:16:53;1.77;;;1.40;;
52974;SDS011;38839;45.186;5.720;2023-04-25T11:19:20;2.35;;;1.45;;
52974;SDS011;38839;45.186;5.720;2023-04-25T11:21:46;2.45;;;1.38;;
52974;SDS011;38839;45.186;5.720;2023-04-25T11:24:11;4.90;;;1.73;;
52974;SDS011;38839;45.186;5.720;2023-04-25T11:26:37;4.00;;;1.48;;
52974;SDS011;38839;45.186;5.720;2023-04-25T11:29:02;3.22;;;1.40;;
52974;SDS011;38839;45.186;5.720;2023-04-25T11:31:28;4.00;;;1.50;;
52974;SDS011;38839;45.186;5.720;2023-04-25T11:33:56;3.30;;;1.60;;
52974;SDS011;38839;45.186;5.720;2023-04-25T11:36:22;3.70;;;1.50;;
52974;SDS011;38839;45.186;5.720;2023-04-25T11:38:49;2.72;;;1.58;;
52974;SDS011;38839;45.186;5.720;2023-04-25T11:41:16;1.80;;;1.20;;
52974;SDS011;38839;45.186;5.720;2023-04-25T11:43:42;2.30;;;1.20;;
52974;SDS011;38839;45.186;5.720;2023-04-25T11:46:08;2.03;;;1.17;;
52974;SDS011;38839;45.186;5.720;2023-04-25T11:48:38;2.55;;;1.42;;
52974;SDS011;38839;45.186;5.720;2023-04-25T11:51:04;2.55;;;1.65;;
52974;SDS011;38839;45.186;5.720;2023-04-25T11:53:29;6.35;;;1.67;;
52974;SDS011;38839;45.186;5.720;2023-04-25T11:55:55;2.75;;;1.67;;
52974;SDS011;38839;45.186;5.720;2023-04-25T11:58:21;2.15;;;1.60;;
52974;SDS011;38839;45.186;5.720;2023-04-25T12:00:46;2.25;;;1.45;;
52974;SDS011;38839;45.186;5.720;2023-04-25T12:03:12;3.20;;;1.65;;
52974;SDS011;38839;45.186;5.720;2023-04-25T12:05:37;3.45;;;1.45;;
52974;SDS011;38839;45.186;5.720;2023-04-25T12:08:14;4.25;;;1.80;;
52974;SDS011;38839;45.186;5.720;2023-04-25T12:10:41;3.97;;;1.67;;
52974;SDS011;38839;45.186;5.720;2023-04-25T12:13:19;2.47;;;1.67;;
52974;SDS011;38839;45.186;5.720;2023-04-25T12:15:49;5.45;;;1.42;;
52974;SDS011;38839;45.186;5.720;2023-04-25T12:18:14;2.08;;;1.30;;
52974;SDS011;38839;45.186;5.720;2023-04-25T12:20:41;5.43;;;1.48;;
52974;SDS011;38839;45.186;5.720;2023-04-25T12:23:06;1.92;;;1.50;;
52974;SDS011;38839;45.186;5.720;2023-04-25T12:25:40;4.35;;;1.45;;
52974;SDS011;38839;45.186;5.720;2023-04-25T12:28:10;3.38;;;1.30;;
52974;SDS011;38839;45.186;5.720;2023-04-25T12:30:53;1.30;;;0.98;;
52974;SDS011;38839;45.186;5.720;2023-04-25T12:33:20;3.90;;;1.40;;
52974;SDS011;38839;45.186;5.720;2023-04-25T12:35:46;4.25;;;1.25;;
52974;SDS011;38839;45.186;5.720;2023-04-25T12:38:19;2.45;;;1.50;;
52974;SDS011;38839;45.186;5.720;2023-04-25T12:41:05;2.15;;;1.38;;
52974;SDS011;38839;45.186;5.720;2023-04-25T12:43:31;3.40;;;1.45;;
52974;SDS011;38839;45.186;5.720;2023-04-25T12:45:57;2.45;;;1.25;;
52974;SDS011;38839;45.186;5.720;2023-04-25T12:48:22;3.67;;;1.58;;
52974;SDS011;38839;45.186;5.720;2023-04-25T12:50:49;2.15;;;1.40;;
52974;SDS011;38839;45.186;5.720;2023-04-25T12:53:19;2.80;;;1.35;;
52974;SDS011;38839;45.186;5.720;2023-04-25T12:55:45;3.25;;;1.50;;
52974;SDS011;38839;45.186;5.720;2023-04-25T12:58:12;3.10;;;1.30;;
52974;SDS011;38839;45.186;5.720;2023-04-25T13:00:38;1.33;;;1.00;;
52974;SDS011;38839;45.186;5.720;2023-04-25T13:03:03;6.03;;;1.55;;
52974;SDS011;38839;45.186;5.720;2023-04-25T13:05:29;2.65;;;1.25;;
52974;SDS011;38839;45.186;5.720;2023-04-25T13:07:55;2.92;;;1.33;;
52974;SDS011;38839;45.186;5.720;2023-04-25T13:10:20;2.50;;;1.30;;
52974;SDS011;38839;45.186;5.720;2023-04-25T13:12:46;2.88;;;1.50;;
52974;SDS011;38839;45.186;5.720;2023-04-25T13:15:11;2.38;;;1.10;;
52974;SDS011;38839;45.186;5.720;2023-04-25T13:17:37;2.03;;;1.23;;
52974;SDS011;38839;45.186;5.720;2023-04-25T13:20:04;3.38;;;1.30;;
52974;SDS011;38839;45.186;5.720;2023-04-25T13:22:34;1.83;;;1.30;;
52974;SDS011;38839;45.186;5.720;2023-04-25T13:25:04;5.10;;;1.58;;
52974;SDS011;38839;45.186;5.720;2023-04-25T13:27:32;3.33;;;1.33;;
52974;SDS011;38839;45.186;5.720;2023-04-25T13:29:59;3.30;;;1.63;;
52974;SDS011;38839;45.186;5.720;2023-04-25T13:32:25;2.15;;;1.50;;
52974;SDS011;38839;45.186;5.720;2023-04-25T13:34:51;4.28;;;1.70;;
52974;SDS011;38839;45.186;5.720;2023-04-25T13:37:16;2.78;;;1.33;;
52974;SDS011;38839;45.186;5.720;2023-04-25T13:39:42;3.13;;;1.30;;
52974;SDS011;38839;45.186;5.720;2023-04-25T13:42:07;3.40;;;1.75;;
52974;SDS011;38839;45.186;5.720;2023-04-25T13:44:32;6.82;;;2.08;;
52974;SDS011;38839;45.186;5.720;2023-04-25T13:46:58;2.53;;;1.50;;
52974;SDS011;38839;45.186;5.720;2023-04-25T13:49:25;2.58;;;1.20;;
52974;SDS011;38839;45.186;5.720;2023-04-25T13:51:51;1.95;;;1.25;;
52974;SDS011;38839;45.186;5.720;2023-04-25T13:54:16;4.35;;;1.30;;
52974;SDS011;38839;45.186;5.720;2023-04-25T13:56:41;3.40;;;1.38;;
52974;SDS011;38839;45.186;5.720;2023-04-25T13:59:07;2.65;;;1.45;;
52974;SDS011;38839;45.186;5.720;2023-04-25T14:01:32;3.42;;;1.30;;
52974;SDS011;38839;45.186;5.720;2023-04-25T14:04:00;1.35;;;1.08;;
52974;SDS011;38839;45.186;5.720;2023-04-25T14:06:26;2.83;;;1.30;;
52974;SDS011;38839;45.186;5.720;2023-04-25T14:08:52;3.15;;;1.42;;
52974;SDS011;38839;45.186;5.720;2023-04-25T14:11:19;2.75;;;1.30;;
52974;SDS011;38839;45.186;5.720;2023-04-25T14:13:44;6.03;;;1.27;;
52974;SDS011;38839;45.186;5.720;2023-04-25T14:16:10;2.60;;;1.15;;
52974;SDS011;38839;45.186;5.720;2023-04-25T14:18:35;3.33;;;1.30;;
52974;SDS011;38839;45.186;5.720;2023-04-25T14:21:01;2.88;;;1.40;;
52974;SDS011;38839;45.186;5.720;2023-04-25T14:23:26;3.63;;;1.75;;
52974;SDS011;38839;45.186;5.720;2023-04-25T14:25:52;1.88;;;1.23;;
52974;SDS011;38839;45.186;5.720;2023-04-25T14:28:17;1.95;;;1.27;;
52974;SDS011;38839;45.186;5.720;2023-04-25T14:30:45;1.88;;;1.02;;
52974;SDS011;38839;45.186;5.720;2023-04-25T14:33:11;2.30;;;1.08;;
52974;SDS011;38839;45.186;5.720;2023-04-25T14:35:36;2.60;;;1.13;;
52974;SDS011;38839;45.186;5.720;2023-04-25T14:38:02;1.85;;;1.05;;
52974;SDS011;38839;45.186;5.720;2023-04-25T14:40:27;2.72;;;1.05;;
52974;SDS011;38839;45.186;5.720;2023-04-25T14:42:53;1.45;;;1.00;;
52974;SDS011;38839;45.186;5.720;2023-04-25T14:45:18;2.00;;;1.20;;
52974;SDS011;38839;45.186;5.720;2023-04-25T14:47:44;4.28;;;1.30;;
52974;SDS011;38839;45.186;5.720;2023-04-25T14:50:10;2.28;;;1.17;;
52974;SDS011;38839;45.186;5.720;2023-04-25T14:52:35;2.65;;;0.90;;
52974;SDS011;38839;45.186;5.720;2023-04-25T14:55:01;2.55;;;1.08;;